Portada
METAR-TAF:

METAR-TAF

Aeropuertos :

Aeropuerto de Logroño-Agoncillo

Logroño, España

latitud: 42-27N, longitud: 002-20W, altitud: 353 m

Observación

El informe se hizo hace 14 minutos, a las 23:30 UTC
Viento 4 kt del este
Temperatura 8°C
Humedad 93%
Presión 1019 hPa
Visibilidad 10 km o más
Cielo nuboso a una altura de 5800 ft

METAR: LELO 152330Z AUTO 09004KT 9999 BKN058 08/07 Q1019

Hora: 00:44 (23:44 UTC)

Pronóstico

El informe se hizo hace 6 horas y 44 minutos, a las 17:00 UTC
Pronóstico válido del 15 a las 18 UTC al 16 a las 03 UTC
Viento 10 kt del oeste
Visibilidad 10 km o más
Nubes dispersas a una altura de 1200 ft
Cielo nuboso a una altura de 2000 ft
Temporalmente
del 15 a las 18 UTC al 15 a las 24 UTC
Visibilidad: 3000 m
Cielo nuboso a una altura de 500 ft
lluvia, neblina

TAF: LELO 151700Z 1518/1603 28010KT 9999 SCT012 BKN020 TEMPO 1518/1524 3000 RA BR BKN005

Observaciones y pronósticos meteorológicos de más de 4000 aeropuertos (mensajes METAR y TAF).

Los puntos amarillos y rojos representan las estaciones disponibles.

Ponga el ratón en el punto deseado para ver el nombre de la estación.

Haga clic para ver las observaciones y los pronósticos meteorológicos.

Para cambiar el mapa : haga clic en los botones verdes con una cruz de color negro para hacer un zoom, en el botón verde con un guión para alejar o en las flechas verdes para mapas adyacentes.


METAR-TAF: